CheckWX is a tool to help pilots better visualize weather data.  It is not intended as a substitute for an official pre-flight weather briefing.

18:42:38 UTC

GGOV METAR
Osvaldo Vieira International Airport
Bissau, Guinea-Bissau
Current

43 mins ago

GGOV 241800Z 27007KT CAVOK 30/21 Q1009 NOSIG
Observed
Apr-24 @ 18:00 UTC
Wind
  • 270° at 7 KTS
Visibility
10,000+ meters
Flight Rules
VFR
Cloud Levels
  • Clear skies
Temperature
30°C / 86°F
Dewpoint
21°C / 70°F
Heat Index
33°C / 91°F
Humidity
59%
Altimeter
29.79" Hg
Pressure
1008.92 hPa
Previous

2 hours ago

GGOV 241700Z 27010KT CAVOK 31/21 Q1009 NOSIG
Observed
Apr-24 @ 17:00 UTC
Wind
  • 270° at 10 KTS
Visibility
10,000+ meters
Flight Rules
VFR
Cloud Levels
  • Clear skies
Temperature
31°C / 88°F
Dewpoint
21°C / 70°F
Heat Index
34°C / 93°F
Humidity
55%
Altimeter
29.79" Hg
Pressure
1008.92 hPa
Previous

3 hours ago

GGOV 241600Z 28009KT CAVOK 32/20 Q1009 NOSIG
Observed
Apr-24 @ 16:00 UTC
Wind
  • 280° at 9 KTS
Visibility
10,000+ meters
Flight Rules
VFR
Cloud Levels
  • Clear skies
Temperature
32°C / 90°F
Dewpoint
20°C / 68°F
Heat Index
34°C / 94°F
Humidity
49%
Altimeter
29.79" Hg
Pressure
1008.92 hPa